Time;durP1;ratioP1;P1;durP2;ratioP2;P2;SDS_P1;SDS_P2;PMS_P1;PMS_P2;Temp;Humidity;BMP_temperature;BMP_pressure;BME280_temperature;BME280_humidity;BME280_pressure;Samples;Min_cycle;Max_cycle;Signal;HPM_P1;HPM_P2
2022/09/30 00:01:25;;;;;;;13.02;6.55;;;8.20;99.90;;;;;;5042082;28;20006;-84
2022/09/30 00:03:55;;;;;;;13.50;6.45;;;8.10;99.90;;;;;;5060962;28;20031;-85
2022/09/30 00:06:21;;;;;;;13.50;6.70;;;8.10;99.90;;;;;;5052626;28;20017;-80
2022/09/30 00:08:47;;;;;;;9.82;6.30;;;8.10;99.90;;;;;;5066862;28;20071;-86
2022/09/30 00:11:20;;;;;;;11.15;6.20;;;8.10;99.90;;;;;;5041789;28;20052;-80
2022/09/30 00:13:47;;;;;;;13.50;5.90;;;10.00;99.90;;;;;;5030356;28;20037;-81
2022/09/30 00:16:15;;;;;;;9.70;5.60;;;8.10;99.90;;;;;;5038881;28;20428;-82
2022/09/30 00:18:42;;;;;;;14.75;5.72;;;8.00;99.90;;;;;;5033886;28;20578;-81
2022/09/30 00:21:09;;;;;;;9.00;5.70;;;7.90;99.90;;;;;;5047018;28;20035;-85
2022/09/30 00:23:36;;;;;;;8.98;5.35;;;7.90;99.90;;;;;;5040911;28;20062;-84
2022/09/30 00:26:06;;;;;;;10.77;5.88;;;7.90;99.90;;;;;;5042125;28;20033;-86
2022/09/30 00:28:31;;;;;;;9.02;5.68;;;7.90;99.90;;;;;;5041667;28;20032;-84
2022/09/30 00:31:04;;;;;;;11.73;6.43;;;7.80;99.90;;;;;;5028794;28;20095;-85
2022/09/30 00:33:29;;;;;;;11.13;6.93;;;7.80;99.90;;;;;;5035354;28;20381;-86
2022/09/30 00:35:55;;;;;;;11.80;6.32;;;;;;;;;;5051882;28;20028;-81
2022/09/30 00:38:21;;;;;;;13.73;6.90;;;7.80;99.90;;;;;;5042115;28;20036;-87
2022/09/30 00:40:48;;;;;;;12.85;7.07;;;7.80;99.90;;;;;;5055428;28;20035;-82
2022/09/30 00:43:16;;;;;;;13.55;7.03;;;7.80;99.90;;;;;;5035654;28;20080;-84
2022/09/30 00:45:56;;;;;;;12.02;6.75;;;7.80;99.90;;;;;;5040099;28;20036;-82
2022/09/30 00:48:34;;;;;;;11.98;7.32;;;7.70;99.90;;;;;;5032927;28;20029;-84
2022/09/30 00:51:02;;;;;;;13.68;7.60;;;7.70;99.90;;;;;;5037751;28;20037;-84
2022/09/30 00:53:45;;;;;;;10.20;6.40;;;7.60;99.90;;;;;;5042807;28;20062;-84
2022/09/30 00:56:17;;;;;;;13.45;6.93;;;7.60;99.90;;;;;;5053472;28;20211;-84
2022/09/30 00:59:04;;;;;;;11.65;7.07;;;7.60;99.90;;;;;;5033780;28;20037;-83
2022/09/30 01:01:31;;;;;;;11.45;5.93;;;7.60;99.90;;;;;;5049362;28;20064;-81
2022/09/30 01:04:01;;;;;;;13.30;6.88;;;9.70;99.90;;;;;;5043333;28;20028;-84
2022/09/30 01:06:26;;;;;;;11.48;6.70;;;7.60;99.90;;;;;;5045801;28;20039;-85
2022/09/30 01:08:54;;;;;;;14.27;6.57;;;7.60;99.90;;;;;;5041858;28;20037;-86
2022/09/30 01:11:20;;;;;;;13.07;7.25;;;;;;;;;;5051446;28;20445;-86
2022/09/30 01:13:50;;;;;;;18.13;8.70;;;7.50;99.90;;;;;;5051767;28;20025;-83
2022/09/30 01:16:47;;;;;;;14.55;8.18;;;7.30;99.90;;;;;;5059272;28;20028;-86
2022/09/30 01:19:34;;;;;;;15.43;8.23;;;7.40;99.90;;;;;;5058397;28;20033;-82
2022/09/30 01:22:13;;;;;;;15.95;8.38;;;7.40;99.90;;;;;;5059379;28;20123;-85
2022/09/30 01:24:51;;;;;;;19.92;8.95;;;7.40;99.90;;;;;;5060335;28;20028;-85
2022/09/30 01:27:23;;;;;;;20.73;9.45;;;7.30;99.90;;;;;;5058724;28;20024;-84
2022/09/30 01:30:06;;;;;;;23.35;9.40;;;7.30;99.90;;;;;;5054627;28;20120;-81
2022/09/30 01:32:37;;;;;;;18.88;9.43;;;7.20;99.90;;;;;;5039788;28;20032;-85
2022/09/30 01:35:12;;;;;;;17.45;9.45;;;7.20;99.90;;;;;;5032741;28;20083;-86
2022/09/30 01:37:51;;;;;;;17.15;9.48;;;7.20;99.90;;;;;;5062826;28;20109;-83
2022/09/30 01:40:34;;;;;;;28.27;10.35;;;7.10;99.90;;;;;;5057313;28;20032;-84
2022/09/30 01:43:34;;;;;;;20.60;10.25;;;7.10;99.90;;;;;;5057795;28;20034;-82
2022/09/30 01:46:07;;;;;;;16.73;9.02;;;7.10;99.90;;;;;;5039387;28;20059;-87
2022/09/30 01:48:55;;;;;;;21.85;10.15;;;7.10;99.90;;;;;;5054769;28;20108;-86
2022/09/30 01:51:52;;;;;;;19.25;10.10;;;7.10;99.90;;;;;;5039176;28;20035;-86
2022/09/30 01:54:26;;;;;;;21.17;9.50;;;7.10;99.90;;;;;;5047859;28;20025;-85
2022/09/30 01:56:57;;;;;;;18.98;10.05;;;7.10;99.90;;;;;;5054755;28;20052;-82
2022/09/30 01:59:29;;;;;;;16.80;8.88;;;7.10;99.90;;;;;;5041670;28;20140;-83
2022/09/30 02:02:00;;;;;;;17.10;8.90;;;7.00;99.90;;;;;;5051591;28;20033;-86
2022/09/30 02:04:33;;;;;;;15.40;8.73;;;7.00;99.90;;;;;;5058768;28;20091;-81
2022/09/30 02:07:09;;;;;;;17.45;9.13;;;7.00;99.90;;;;;;5053036;28;20503;-81
2022/09/30 02:09:51;;;;;;;16.95;8.60;;;7.00;99.90;;;;;;5055039;28;20067;-83
2022/09/30 02:12:22;;;;;;;15.57;8.23;;;7.00;99.90;;;;;;5046473;28;20080;-81
2022/09/30 02:14:56;;;;;;;17.17;9.07;;;7.00;99.90;;;;;;5056267;28;20035;-82
2022/09/30 02:17:27;;;;;;;16.50;8.82;;;9.20;99.90;;;;;;5043848;28;20524;-83
2022/09/30 02:19:59;;;;;;;18.80;10.02;;;6.90;99.90;;;;;;5055241;28;20091;-81
2022/09/30 02:22:33;;;;;;;16.00;8.70;;;6.90;99.90;;;;;;5040010;28;20033;-86
2022/09/30 02:25:03;;;;;;;19.42;9.15;;;6.90;99.90;;;;;;5035257;28;20033;-84
2022/09/30 02:27:41;;;;;;;15.27;8.95;;;7.30;99.90;;;;;;5054051;28;20079;-83
2022/09/30 02:30:11;;;;;;;13.18;7.70;;;6.90;99.90;;;;;;5029513;28;20029;-81
2022/09/30 02:33:16;;;;;;;17.20;7.18;;;6.90;99.90;;;;;;5026525;28;20070;-87
2022/09/30 02:35:51;;;;;;;14.95;7.63;;;6.80;99.90;;;;;;5043813;28;20444;-85
2022/09/30 02:38:36;;;;;;;14.65;8.38;;;6.80;99.90;;;;;;5046905;28;20063;-84
2022/09/30 02:41:07;;;;;;;13.32;7.82;;;6.80;99.90;;;;;;5068714;28;20032;-87
2022/09/30 02:43:33;;;;;;;15.00;8.30;;;6.80;99.90;;;;;;5052996;28;20029;-79
2022/09/30 02:46:09;;;;;;;13.43;7.93;;;6.80;99.90;;;;;;5061910;28;20043;-86
2022/09/30 02:49:07;;;;;;;14.27;7.65;;;6.80;99.90;;;;;;5041163;28;20029;-83
2022/09/30 02:52:14;;;;;;;12.45;8.55;;;6.80;99.90;;;;;;5030264;28;20047;-83
2022/09/30 02:55:14;;;;;;;15.25;8.00;;;6.70;99.90;;;;;;5042273;28;20061;-81
2022/09/30 02:57:55;;;;;;;15.60;8.18;;;6.80;99.90;;;;;;5038409;28;20518;-81
2022/09/30 03:00:20;;;;;;;13.55;7.93;;;6.80;99.90;;;;;;5033479;28;20025;-83
2022/09/30 03:02:47;;;;;;;14.05;8.00;;;6.80;99.90;;;;;;5042871;28;20037;-86
2022/09/30 03:05:12;;;;;;;12.07;7.50;;;6.70;99.90;;;;;;5034670;28;20331;-83
2022/09/30 03:07:39;;;;;;;13.52;7.43;;;6.70;99.90;;;;;;5034543;28;20266;-83
2022/09/30 03:10:16;;;;;;;17.75;8.20;;;6.70;99.90;;;;;;5033290;28;20041;-82
2022/09/30 03:13:14;;;;;;;12.13;7.47;;;6.70;99.90;;;;;;5047455;28;20067;-84
2022/09/30 03:16:09;;;;;;;11.80;7.22;;;6.70;99.90;;;;;;5033413;28;20067;-85
2022/09/30 03:18:53;;;;;;;11.90;6.80;;;6.60;99.90;;;;;;5044406;28;20520;-83
2022/09/30 03:21:50;;;;;;;12.93;7.13;;;6.70;99.90;;;;;;5046226;28;20025;-81
2022/09/30 03:24:54;;;;;;;14.55;7.38;;;6.50;99.90;;;;;;5049030;28;20057;-84
2022/09/30 03:27:59;;;;;;;12.65;7.28;;;6.50;99.90;;;;;;5018585;28;20044;-80
2022/09/30 03:30:26;;;;;;;11.27;6.88;;;6.50;99.90;;;;;;5031251;28;20053;-82
2022/09/30 03:33:03;;;;;;;10.50;6.63;;;6.50;99.90;;;;;;5039407;28;20035;-84
2022/09/30 03:35:50;;;;;;;10.65;6.95;;;6.50;99.90;;;;;;5038663;28;20514;-85
2022/09/30 03:38:35;;;;;;;12.68;7.72;;;6.50;99.90;;;;;;5050856;28;20033;-84
2022/09/30 03:41:15;;;;;;;10.65;6.78;;;6.40;99.90;;;;;;5046048;28;20038;-79
2022/09/30 03:43:44;;;;;;;13.95;8.45;;;6.40;99.90;;;;;;5048345;28;20037;-84
2022/09/30 03:46:36;;;;;;;14.00;7.93;;;6.30;99.90;;;;;;5057743;28;20029;-81
2022/09/30 03:49:06;;;;;;;11.73;7.40;;;6.30;99.90;;;;;;5034736;28;20028;-82
2022/09/30 03:51:36;;;;;;;12.50;7.53;;;6.20;99.90;;;;;;5052306;28;20033;-84
2022/09/30 03:54:10;;;;;;;12.40;7.47;;;6.10;99.90;;;;;;5037978;28;20038;-86
2022/09/30 03:56:40;;;;;;;14.40;7.88;;;6.20;99.90;;;;;;5048340;28;20445;-85
2022/09/30 03:59:16;;;;;;;13.10;7.75;;;6.20;99.90;;;;;;5050665;28;20029;-85
2022/09/30 04:01:41;;;;;;;14.93;8.05;;;6.20;99.90;;;;;;5034149;28;20052;-83
2022/09/30 04:04:07;;;;;;;12.65;7.75;;;6.20;99.90;;;;;;5047646;28;20033;-85
2022/09/30 04:06:33;;;;;;;14.68;8.32;;;6.20;99.90;;;;;;5036589;28;20029;-82
2022/09/30 04:08:58;;;;;;;15.02;8.07;;;6.20;99.90;;;;;;5023439;28;20036;-84
2022/09/30 04:11:25;;;;;;;12.35;8.02;;;6.10;99.90;;;;;;5031294;28;20729;-84
2022/09/30 04:13:50;;;;;;;14.82;7.82;;;10.20;99.90;;;;;;5028877;28;20040;-87
2022/09/30 04:16:16;;;;;;;15.02;8.20;;;6.20;99.90;;;;;;5055724;28;20029;-85
2022/09/30 04:18:42;;;;;;;14.10;8.13;;;6.30;99.90;;;;;;5040106;28;20033;-84
2022/09/30 04:21:09;;;;;;;13.68;7.88;;;6.40;99.90;;;;;;5061853;28;20403;-85
2022/09/30 04:23:36;;;;;;;12.48;7.25;;;6.40;99.90;;;;;;5050630;28;20032;-84
2022/09/30 04:26:02;;;;;;;12.93;7.85;;;6.40;99.90;;;;;;5048467;28;20029;-84
2022/09/30 04:28:28;;;;;;;11.70;7.90;;;6.50;99.90;;;;;;5038978;28;20048;-87
2022/09/30 04:30:53;;;;;;;14.63;8.57;;;6.50;99.90;;;;;;5042293;28;20025;-86
2022/09/30 04:33:19;;;;;;;18.65;7.97;;;6.50;99.90;;;;;;5055327;28;20028;-85
2022/09/30 04:35:44;;;;;;;15.18;8.75;;;6.50;99.90;;;;;;5058260;28;20056;-82
2022/09/30 04:38:10;;;;;;;12.82;8.00;;;6.50;99.90;;;;;;5042326;28;20045;-82
2022/09/30 04:40:37;;;;;;;15.25;7.68;;;6.50;99.90;;;;;;5044873;28;20037;-82
2022/09/30 04:43:04;;;;;;;16.30;7.85;;;7.50;99.90;;;;;;5042017;28;20048;-81
2022/09/30 04:45:30;;;;;;;15.07;8.25;;;6.50;99.90;;;;;;5059154;28;20041;-81
2022/09/30 04:47:56;;;;;;;16.50;8.73;;;;;;;;;;5062193;28;20017;-82
2022/09/30 04:50:22;;;;;;;21.73;8.23;;;;;;;;;;5046001;28;20053;-85
2022/09/30 04:52:48;;;;;;;18.92;9.13;;;6.50;99.90;;;;;;5060730;28;20029;-82
2022/09/30 04:55:13;;;;;;;16.98;8.82;;;6.40;99.90;;;;;;5040385;28;20024;-83
2022/09/30 04:57:43;;;;;;;13.88;8.77;;;6.30;99.90;;;;;;5036102;28;20094;-85
2022/09/30 05:00:09;;;;;;;17.10;8.88;;;6.20;99.90;;;;;;5048042;28;20039;-84
2022/09/30 05:02:35;;;;;;;17.90;9.63;;;6.20;99.90;;;;;;5035839;28;20029;-83
2022/09/30 05:05:02;;;;;;;24.23;9.50;;;6.20;99.90;;;;;;5039041;28;21197;-84
2022/09/30 05:07:29;;;;;;;20.05;9.60;;;6.20;99.90;;;;;;5063833;28;20049;-87
2022/09/30 05:09:56;;;;;;;17.67;8.82;;;6.10;99.90;;;;;;5053106;28;20028;-85
2022/09/30 05:12:22;;;;;;;19.98;9.60;;;6.10;99.90;;;;;;5055104;28;20014;-85
2022/09/30 05:14:48;;;;;;;24.33;9.43;;;7.80;99.90;;;;;;5062257;28;20029;-86
2022/09/30 05:17:13;;;;;;;21.73;9.35;;;6.10;99.90;;;;;;5043222;28;20514;-83
2022/09/30 05:19:39;;;;;;;18.58;9.38;;;6.10;99.90;;;;;;5045208;28;20060;-84
2022/09/30 05:22:04;;;;;;;21.90;8.95;;;6.10;99.90;;;;;;5039303;28;20033;-83
2022/09/30 05:24:30;;;;;;;17.13;8.60;;;6.10;99.90;;;;;;5039821;28;20078;-81
2022/09/30 05:26:56;;;;;;;22.05;9.02;;;6.10;99.90;;;;;;5046230;28;20043;-83
2022/09/30 05:29:21;;;;;;;19.30;8.85;;;6.00;99.90;;;;;;5056406;28;20490;-83
2022/09/30 05:31:47;;;;;;;14.85;8.65;;;6.00;99.90;;;;;;5042502;28;20029;-82
2022/09/30 05:34:15;;;;;;;14.82;8.10;;;7.30;99.90;;;;;;5051062;28;20545;-85
2022/09/30 05:36:42;;;;;;;16.73;9.27;;;6.10;99.90;;;;;;5047294;28;20041;-86
2022/09/30 05:39:09;;;;;;;22.95;8.57;;;6.10;99.90;;;;;;5047982;28;20037;-88
2022/09/30 05:41:35;;;;;;;23.10;9.05;;;;;;;;;;5060523;28;20120;-86
2022/09/30 05:44:01;;;;;;;17.08;7.78;;;6.10;99.90;;;;;;5043994;28;20036;-88
2022/09/30 05:46:27;;;;;;;18.42;8.73;;;;;;;;;;5050677;28;20133;-88
2022/09/30 05:48:54;;;;;;;14.05;8.07;;;;;;;;;;5052148;28;20111;-85
2022/09/30 05:51:20;;;;;;;14.30;9.05;;;6.20;99.90;;;;;;5034825;28;20055;-86
2022/09/30 05:53:46;;;;;;;15.18;8.43;;;;;;;;;;5040353;28;20021;-87
2022/09/30 05:56:12;;;;;;;16.75;8.68;;;;;;;;;;5046479;28;20032;-82
2022/09/30 05:58:40;;;;;;;20.38;9.88;;;;;;;;;;5052391;28;20048;-87
2022/09/30 06:01:12;;;;;;;21.65;9.98;;;6.30;99.90;;;;;;5039011;28;20029;-85
2022/09/30 06:03:38;;;;;;;17.58;9.00;;;;;;;;;;5042226;28;20021;-87
2022/09/30 06:06:05;;;;;;;16.73;8.93;;;6.30;99.90;;;;;;5041840;28;20051;-88
2022/09/30 06:08:31;;;;;;;18.20;9.13;;;6.30;99.90;;;;;;5034818;28;20100;-87
2022/09/30 06:10:58;;;;;;;22.30;9.73;;;;;;;;;;5055670;28;20024;-86
2022/09/30 06:13:24;;;;;;;17.67;10.15;;;;;;;;;;5051043;28;20029;-89
2022/09/30 06:16:00;;;;;;;45.80;9.80;;;6.40;99.90;;;;;;5042058;28;20076;-89
2022/09/30 06:18:26;;;;;;;19.67;8.02;;;6.40;99.90;;;;;;5054113;28;20033;-86
2022/09/30 06:20:59;;;;;;;17.50;9.35;;;6.40;99.90;;;;;;5046000;28;20041;-87
2022/09/30 06:23:25;;;;;;;37.00;9.57;;;6.30;99.90;;;;;;5042164;28;20088;-86
2022/09/30 06:25:52;;;;;;;16.13;7.30;;;6.30;99.90;;;;;;5053671;28;20099;-85
2022/09/30 06:28:18;;;;;;;16.40;7.15;;;;;;;;;;5048093;28;20048;-85
2022/09/30 06:30:45;;;;;;;17.20;7.75;;;;;;;;;;5044636;28;21069;-86
2022/09/30 06:33:12;;;;;;;13.68;6.85;;;6.30;99.90;;;;;;5035643;28;20052;-86
2022/09/30 06:35:40;;;;;;;28.13;8.70;;;6.30;99.90;;;;;;5050675;28;20513;-85
2022/09/30 06:38:06;;;;;;;23.45;8.68;;;6.20;99.90;;;;;;5032255;28;20083;-85
2022/09/30 06:40:31;;;;;;;16.75;7.95;;;6.30;99.90;;;;;;5032555;28;20025;-84
2022/09/30 06:42:58;;;;;;;30.40;8.60;;;6.30;99.90;;;;;;5046043;28;20384;-89
2022/09/30 06:45:24;;;;;;;21.63;8.65;;;6.40;99.90;;;;;;5048989;28;20392;-86
2022/09/30 06:47:50;;;;;;;16.88;8.02;;;;;;;;;;5051871;28;20119;-85
2022/09/30 06:50:17;;;;;;;10.52;6.68;;;6.40;99.90;;;;;;5052249;28;20148;-86
2022/09/30 06:52:44;;;;;;;15.75;7.35;;;;;;;;;;5045193;28;20056;-85
2022/09/30 06:55:10;;;;;;;10.65;6.43;;;;;;;;;;5060566;28;20029;-87
2022/09/30 06:57:36;;;;;;;11.95;6.88;;;;;;;;;;5051697;28;20088;-88
2022/09/30 07:00:03;;;;;;;10.63;5.68;;;6.40;99.90;;;;;;5058546;28;20012;-87
2022/09/30 07:02:30;;;;;;;8.30;5.53;;;;;;;;;;5068414;28;20025;-85
2022/09/30 07:04:56;;;;;;;8.90;5.95;;;;;;;;;;5068412;28;20047;-86
2022/09/30 07:07:22;;;;;;;8.30;5.15;;;;;;;;;;5042877;28;20047;-86
2022/09/30 07:09:48;;;;;;;7.38;4.63;;;;;;;;;;5056898;28;20100;-83
2022/09/30 07:12:14;;;;;;;9.27;5.50;;;;;;;;;;5058353;28;20025;-83
2022/09/30 07:14:40;;;;;;;9.07;5.70;;;;;;;;;;5053779;28;20030;-86
2022/09/30 07:17:06;;;;;;;7.85;4.93;;;;;;;;;;5041720;28;20052;-83
2022/09/30 07:19:33;;;;;;;8.23;4.75;;;6.80;99.90;;;;;;5046704;28;20426;-85
2022/09/30 07:22:26;;;;;;;8.25;5.25;;;;;;;;;;5034921;28;20024;-81
2022/09/30 07:24:45;;;;;;;7.25;4.93;;;;;;;;;;5052972;28;20033;-86
2022/09/30 07:27:12;;;;;;;13.43;5.18;;;6.80;99.90;;;;;;5070690;28;20036;-86
2022/09/30 07:29:39;;;;;;;8.35;4.85;;;8.30;99.90;;;;;;5043732;28;20026;-85
2022/09/30 07:32:05;;;;;;;9.85;5.32;;;6.70;99.90;;;;;;5033644;28;20036;-83
2022/09/30 07:34:31;;;;;;;8.43;5.40;;;;;;;;;;5060458;28;20033;-84
2022/09/30 07:36:56;;;;;;;8.45;5.43;;;7.30;99.90;;;;;;5054193;28;20067;-82
2022/09/30 07:39:22;;;;;;;8.90;5.65;;;;;;;;;;5048107;28;20036;-83
2022/09/30 07:41:48;;;;;;;10.30;6.32;;;7.40;99.90;;;;;;5050584;28;20121;-82
2022/09/30 07:44:13;;;;;;;21.58;11.98;;;7.50;99.90;;;;;;5060379;28;20052;-81
2022/09/30 07:46:41;;;;;;;9.63;6.57;;;7.70;99.90;;;;;;5045516;28;20017;-83
2022/09/30 07:49:13;;;;;;;9.13;6.22;;;7.70;99.90;;;;;;5041350;28;20029;-82
2022/09/30 07:51:42;;;;;;;10.13;6.22;;;7.70;99.90;;;;;;5050346;28;20032;-80
2022/09/30 07:54:14;;;;;;;10.43;6.40;;;7.70;99.90;;;;;;5035124;28;20108;-82
2022/09/30 07:56:42;;;;;;;13.38;6.78;;;7.80;99.90;;;;;;5029339;28;20033;-79
2022/09/30 07:59:10;;;;;;;12.02;7.30;;;8.20;99.90;;;;;;5040551;28;20079;-82
2022/09/30 08:01:36;;;;;;;10.30;6.70;;;8.00;99.90;;;;;;5050183;28;20051;-88
2022/09/30 08:04:04;;;;;;;13.02;7.22;;;7.90;99.90;;;;;;5049504;28;20040;-83
2022/09/30 08:06:34;;;;;;;12.55;6.40;;;7.90;99.90;;;;;;5029276;28;20034;-82
2022/09/30 08:09:00;;;;;;;16.52;10.35;;;10.30;99.90;;;;;;5045017;28;20052;-83
2022/09/30 08:11:26;;;;;;;11.70;7.20;;;8.10;99.90;;;;;;5032291;28;20060;-83
2022/09/30 08:13:53;;;;;;;11.00;7.20;;;8.30;99.90;;;;;;5033930;28;20021;-83
2022/09/30 08:16:20;;;;;;;11.60;7.05;;;10.10;99.90;;;;;;5030386;28;20025;-81
2022/09/30 08:18:46;;;;;;;11.52;7.00;;;11.00;99.90;;;;;;5034244;28;20075;-78
2022/09/30 08:21:12;;;;;;;17.00;7.95;;;;;;;;;;5040659;28;20045;-85
2022/09/30 08:23:38;;;;;;;11.98;6.93;;;8.70;99.90;;;;;;5020164;28;20131;-83
2022/09/30 08:26:06;;;;;;;12.57;7.00;;;8.80;99.90;;;;;;5032325;28;20464;-82
2022/09/30 08:28:32;;;;;;;10.60;6.50;;;10.70;99.90;;;;;;5041054;28;20080;-84
2022/09/30 08:31:11;;;;;;;12.73;7.45;;;8.90;99.90;;;;;;5029184;28;20021;-84
2022/09/30 08:33:38;;;;;;;10.90;7.18;;;9.20;99.90;;;;;;5055215;28;20086;-84
2022/09/30 08:36:06;;;;;;;14.38;7.35;;;9.20;99.90;;;;;;5040178;28;20033;-81
2022/09/30 08:38:32;;;;;;;12.45;7.78;;;9.60;99.90;;;;;;5039996;28;20536;-84
2022/09/30 08:41:15;;;;;;;11.98;7.82;;;9.60;99.90;;;;;;5053372;28;20083;-84
2022/09/30 08:44:14;;;;;;;13.68;7.57;;;9.70;99.90;;;;;;5050593;28;20040;-84
2022/09/30 08:46:51;;;;;;;12.68;7.80;;;9.90;99.90;;;;;;5048639;28;20117;-79
2022/09/30 08:49:26;;;;;;;14.60;8.80;;;9.90;99.90;;;;;;5039661;28;20348;-83
2022/09/30 08:51:52;;;;;;;14.10;8.23;;;10.10;99.90;;;;;;5038574;28;20083;-82
2022/09/30 08:54:25;;;;;;;14.00;8.35;;;10.20;99.90;;;;;;5032652;28;20021;-83
2022/09/30 08:56:52;;;;;;;14.30;8.98;;;10.10;99.90;;;;;;5034629;28;20036;-82
2022/09/30 08:59:27;;;;;;;16.25;9.15;;;10.00;99.90;;;;;;5036129;28;20035;-84
2022/09/30 09:02:01;;;;;;;14.90;9.07;;;10.30;99.90;;;;;;5033451;28;20025;-83
2022/09/30 09:04:26;;;;;;;14.98;9.30;;;13.00;99.90;;;;;;5034853;28;20079;-82
2022/09/30 09:06:53;;;;;;;15.38;9.10;;;11.50;99.90;;;;;;5042481;28;20033;-84
2022/09/30 09:09:38;;;;;;;13.32;9.05;;;10.50;99.90;;;;;;5037811;28;20022;-85
2022/09/30 09:12:32;;;;;;;15.90;9.85;;;10.80;99.90;;;;;;5036950;28;20092;-82
2022/09/30 09:15:16;;;;;;;16.65;9.50;;;10.80;99.90;;;;;;5055989;28;20091;-82
2022/09/30 09:17:50;;;;;;;16.70;9.88;;;11.00;99.90;;;;;;5052639;28;20081;-87
2022/09/30 09:20:20;;;;;;;17.35;9.45;;;11.10;99.90;;;;;;5020340;28;20047;-86
2022/09/30 09:22:47;;;;;;;18.20;10.03;;;11.20;99.90;;;;;;5057988;28;20033;-83
2022/09/30 09:25:21;;;;;;;14.98;9.75;;;11.80;99.90;;;;;;5052828;28;20029;-85
2022/09/30 09:27:58;;;;;;;22.35;9.93;;;11.40;99.90;;;;;;5037797;28;20032;-86
2022/09/30 09:30:28;;;;;;;17.10;10.35;;;12.50;99.90;;;;;;5032737;28;20033;-85
2022/09/30 09:32:59;;;;;;;17.48;9.90;;;11.50;99.90;;;;;;5054488;28;20029;-86
2022/09/30 09:35:43;;;;;;;14.88;9.32;;;11.50;99.90;;;;;;5046068;28;20030;-84
2022/09/30 09:38:23;;;;;;;17.15;9.80;;;11.50;99.90;;;;;;5059401;28;20073;-88
2022/09/30 09:41:12;;;;;;;14.50;9.35;;;11.60;99.90;;;;;;5052845;28;20494;-85
2022/09/30 09:43:49;;;;;;;15.57;9.55;;;11.70;99.90;;;;;;5058301;28;20103;-84
2022/09/30 09:46:17;;;;;;;13.63;8.18;;;11.80;99.90;;;;;;5046193;28;20025;-87
2022/09/30 09:48:43;;;;;;;14.77;9.57;;;12.00;99.90;;;;;;5040074;28;20036;-87
2022/09/30 09:51:41;;;;;;;17.10;10.35;;;12.20;99.90;;;;;;5037559;28;20028;-86
2022/09/30 09:54:11;;;;;;;18.33;10.40;;;10.90;99.90;;;;;;5050872;28;20119;-84
2022/09/30 09:56:36;;;;;;;13.10;8.90;;;12.20;99.90;;;;;;5070134;28;20081;-86
2022/09/30 09:59:12;;;;;;;13.43;8.85;;;13.70;99.90;;;;;;5052687;28;20025;-83
2022/09/30 10:01:42;;;;;;;13.48;8.52;;;12.80;99.90;;;;;;5063860;28;20025;-82
2022/09/30 10:04:10;;;;;;;13.00;7.90;;;12.80;99.90;;;;;;5064830;28;20021;-83
2022/09/30 10:06:54;;;;;;;14.70;8.30;;;14.30;99.90;;;;;;5062876;28;20087;-84
2022/09/30 10:09:24;;;;;;;15.50;8.23;;;13.20;99.90;;;;;;5049325;28;20425;-83
2022/09/30 10:12:10;;;;;;;11.75;7.45;;;13.50;99.90;;;;;;5053376;28;20096;-81
2022/09/30 10:14:46;;;;;;;12.20;6.60;;;13.50;99.90;;;;;;5040791;28;20139;-81
2022/09/30 10:17:29;;;;;;;9.00;5.80;;;13.90;99.90;;;;;;5052427;28;20029;-83
2022/09/30 10:20:13;;;;;;;8.02;4.63;;;13.90;99.90;;;;;;5059693;28;20112;-83
2022/09/30 10:22:39;;;;;;;7.88;4.60;;;14.20;99.90;;;;;;5052953;28;20035;-84
2022/09/30 10:25:14;;;;;;;8.43;4.88;;;14.10;99.90;;;;;;5059715;28;19997;-85
2022/09/30 10:27:48;;;;;;;10.88;5.93;;;14.30;99.90;;;;;;5037393;28;20112;-85
2022/09/30 10:30:35;;;;;;;7.38;5.05;;;14.60;99.90;;;;;;5062622;28;20463;-87
2022/09/30 10:33:03;;;;;;;7.97;5.18;;;14.50;99.90;;;;;;5036527;28;20029;-85
2022/09/30 10:35:29;;;;;;;6.90;3.22;;;;;;;;;;5033556;28;20040;-86
2022/09/30 10:37:58;;;;;;;7.35;4.60;;;14.70;99.90;;;;;;5054227;28;20135;-88
2022/09/30 10:40:27;;;;;;;7.00;3.75;;;16.40;99.90;;;;;;5058608;28;20025;-87
2022/09/30 10:42:54;;;;;;;7.80;4.07;;;14.70;99.90;;;;;;5066359;28;20098;-87
2022/09/30 10:45:40;;;;;;;7.32;3.95;;;14.70;99.90;;;;;;5064070;28;20044;-87
2022/09/30 10:48:16;;;;;;;6.40;3.67;;;17.30;99.90;;;;;;5065114;28;20028;-85
2022/09/30 10:50:52;;;;;;;10.57;4.57;;;14.90;99.90;;;;;;5062089;28;20115;-85
2022/09/30 10:53:33;;;;;;;8.13;3.97;;;15.00;99.90;;;;;;5073963;28;20005;-87
2022/09/30 10:56:00;;;;;;;9.60;4.47;;;15.10;99.90;;;;;;5072912;28;20113;-86
2022/09/30 10:58:26;;;;;;;8.73;4.35;;;;;;;;;;5054668;28;20060;-85
2022/09/30 11:01:05;;;;;;;6.70;4.20;;;15.30;99.90;;;;;;5047726;28;20486;-88
2022/09/30 11:03:47;;;;;;;6.47;4.50;;;15.30;99.90;;;;;;5062142;28;20052;-87
2022/09/30 11:06:14;;;;;;;15.13;9.95;;;15.30;99.90;;;;;;5059141;28;20028;-86
2022/09/30 11:09:56;;;;;;;10.57;4.43;;;15.20;99.90;;;;;;5042340;28;20032;-81
2022/09/30 11:12:40;;;;;;;7.85;4.88;;;15.20;99.90;;;;;;4951839;28;20134;-86
2022/09/30 11:15:27;;;;;;;13.10;4.80;;;15.30;99.90;;;;;;4970752;28;20033;-85
2022/09/30 11:18:00;;;;;;;6.50;4.45;;;15.30;99.90;;;;;;5010575;28;22818;-80
2022/09/30 11:20:38;;;;;;;7.47;4.50;;;15.20;99.90;;;;;;5042782;28;20037;-83
2022/09/30 11:23:18;;;;;;;8.65;4.20;;;15.10;99.90;;;;;;5048140;28;20037;-83
2022/09/30 11:25:53;;;;;;;7.53;3.83;;;15.10;99.90;;;;;;5039734;28;20043;-81
2022/09/30 11:28:19;;;;;;;9.90;4.32;;;15.30;99.90;;;;;;5045578;28;20029;-82
2022/09/30 11:30:55;;;;;;;11.02;5.93;;;16.80;99.90;;;;;;5033589;28;20029;-80
2022/09/30 11:33:50;;;;;;;8.48;4.57;;;15.40;99.90;;;;;;5045080;28;20111;-84
2022/09/30 11:36:43;;;;;;;7.88;4.10;;;15.10;99.90;;;;;;5055539;28;20033;-83
2022/09/30 11:39:30;;;;;;;11.15;5.47;;;15.10;99.90;;;;;;5035833;28;20652;-82
2022/09/30 11:42:37;;;;;;;14.88;5.97;;;14.70;99.90;;;;;;5050798;28;20016;-84
2022/09/30 11:45:53;;;;;;;;;;;;;;;;;;;;;
2022/09/30 11:53:09;;;;;;;20.67;10.20;;;14.90;99.90;;;;;;4909484;29;20098;-81
2022/09/30 12:06:33;;;;;;;7.45;4.45;;;15.30;99.90;;;;;;5028061;28;20036;-79
2022/09/30 12:09:08;;;;;;;6.10;2.97;;;15.10;99.90;;;;;;4996382;28;20044;-82
2022/09/30 12:12:00;;;;;;;7.05;3.55;;;15.00;99.90;;;;;;5014751;28;20048;-82
2022/09/30 12:14:59;;;;;;;8.00;3.03;;;15.00;99.90;;;;;;5026870;28;20025;-81
2022/09/30 12:17:47;;;;;;;3.88;2.22;;;14.90;99.90;;;;;;5024426;28;20119;-82
2022/09/30 12:20:26;;;;;;;5.72;2.88;;;14.70;99.90;;;;;;5054460;28;20035;-81
2022/09/30 12:23:29;;;;;;;5.80;2.75;;;14.90;99.90;;;;;;5048462;28;20022;-84
2022/09/30 12:25:59;;;;;;;6.15;2.47;;;14.90;99.90;;;;;;5052806;28;20017;-83
2022/09/30 12:32:38;;;;;;;4.30;2.25;;;15.20;99.90;;;;;;4995488;28;20038;-85
2022/09/30 12:35:42;;;;;;;7.82;2.78;;;15.20;99.90;;;;;;4973973;28;20034;-81
2022/09/30 12:38:45;;;;;;;7.07;2.88;;;15.20;99.90;;;;;;5053480;28;20036;-83
2022/09/30 12:41:31;;;;;;;4.13;2.33;;;15.50;99.90;;;;;;5041805;28;20085;-82
2022/09/30 12:44:28;;;;;;;5.05;2.78;;;15.50;99.90;;;;;;5037096;28;20021;-83
2022/09/30 12:47:50;;;;;;;7.70;2.92;;;15.80;99.90;;;;;;5057437;28;20070;-83
2022/09/30 12:50:20;;;;;;;5.50;2.65;;;16.10;99.90;;;;;;5017020;28;20033;-85
2022/09/30 12:52:47;;;;;;;5.20;2.25;;;16.30;99.90;;;;;;5039120;28;20017;-85
2022/09/30 12:55:35;;;;;;;5.03;2.13;;;16.30;99.90;;;;;;5057477;28;20281;-84
2022/09/30 12:58:04;;;;;;;6.35;2.83;;;16.50;99.90;;;;;;5060057;28;20024;-85
2022/09/30 13:00:33;;;;;;;4.70;2.97;;;16.50;99.90;;;;;;5040810;28;20586;-85
2022/09/30 13:03:05;;;;;;;3.85;2.45;;;16.50;99.90;;;;;;5036187;28;20029;-84
2022/09/30 13:05:31;;;;;;;2.47;1.75;;;16.70;99.90;;;;;;5055711;28;20026;-86
2022/09/30 13:08:03;;;;;;;4.82;1.83;;;16.40;99.90;;;;;;5040311;28;20429;-85
2022/09/30 13:10:33;;;;;;;4.28;1.83;;;17.00;99.80;;;;;;5057201;28;20055;-81
2022/09/30 13:13:23;;;;;;;5.03;2.30;;;16.80;99.60;;;;;;5040734;28;20040;-85
2022/09/30 13:16:02;;;;;;;4.85;2.33;;;16.90;99.50;;;;;;5046141;28;20498;-85
2022/09/30 13:18:28;;;;;;;4.32;1.98;;;;;;;;;;5059016;28;20025;-85
2022/09/30 13:21:09;;;;;;;7.43;2.25;;;17.10;98.60;;;;;;5059226;28;20080;-82
2022/09/30 13:23:43;;;;;;;4.25;1.70;;;17.10;97.90;;;;;;5043690;28;20025;-84
2022/09/30 13:26:33;;;;;;;4.80;1.65;;;17.10;97.70;;;;;;5040756;28;20025;-83
2022/09/30 13:28:59;;;;;;;4.68;1.98;;;17.00;98.00;;;;;;5059770;28;20036;-86
2022/09/30 13:31:30;;;;;;;5.07;1.98;;;17.00;97.70;;;;;;5048047;28;20044;-85
2022/09/30 13:34:00;;;;;;;5.07;1.80;;;;;;;;;;5059701;28;20025;-85
2022/09/30 13:36:37;;;;;;;4.97;1.90;;;17.30;97.60;;;;;;5042751;28;20406;-83
2022/09/30 13:39:30;;;;;;;2.95;1.70;;;17.20;97.70;;;;;;5052040;28;20028;-86
2022/09/30 13:42:23;;;;;;;4.15;2.00;;;17.40;96.90;;;;;;5043050;28;20029;-83
2022/09/30 13:45:12;;;;;;;4.47;2.13;;;17.30;97.00;;;;;;5039211;28;20075;-87
2022/09/30 13:47:55;;;;;;;6.40;2.28;;;17.30;96.90;;;;;;5057529;28;20086;-85
2022/09/30 13:50:35;;;;;;;4.55;2.17;;;17.30;96.40;;;;;;5038709;28;20056;-84
2022/09/30 13:53:04;;;;;;;;;;;17.20;96.30;;;;;;5038886;28;20028;-83